Time;durP1;ratioP1;P1;durP2;ratioP2;P2;SDS_P1;SDS_P2;PMS_P1;PMS_P2;Temp;Humidity;BMP_temperature;BMP_pressure;BME280_temperature;BME280_humidity;BME280_pressure;Samples;Min_cycle;Max_cycle;Signal;HPM_P1;HPM_P2
2021/11/26 00:00:36;;;;;;;74.25;40.48;;;;;;;4.26;63.59;99352.67;2084651;84;29749;-62
2021/11/26 00:03:40;;;;;;;70.42;41.42;;;;;;;4.28;63.66;99346.45;2088834;84;27678;-61
2021/11/26 00:06:42;;;;;;;74.17;42.48;;;;;;;4.27;63.67;99345.60;2112134;84;28760;-58
2021/11/26 00:09:44;;;;;;;65.00;38.53;;;;;;;4.28;63.63;99336.73;2113828;82;32174;-56
2021/11/26 00:12:53;;;;;;;63.75;38.17;;;;;;;4.28;63.62;99331.42;2090316;84;33940;-63
2021/11/26 00:15:52;;;;;;;71.42;39.78;;;;;;;4.29;63.43;99333.59;2107491;84;29369;-58
2021/11/26 00:18:58;;;;;;;72.67;41.02;;;;;;;4.27;63.44;99317.77;2094966;82;28173;-60
2021/11/26 00:21:58;;;;;;;73.35;40.65;;;;;;;4.26;63.50;99318.69;2094153;84;30071;-61
2021/11/26 00:25:00;;;;;;;76.97;41.55;;;;;;;4.25;63.47;99316.95;2092185;84;31023;-61
2021/11/26 00:28:02;;;;;;;67.22;38.38;;;;;;;4.22;63.45;99313.09;2076238;84;34143;-63
2021/11/26 00:31:03;;;;;;;72.78;38.05;;;;;;;4.18;63.37;99319.44;2041658;84;30640;-57
2021/11/26 00:34:06;;;;;;;70.52;39.15;;;;;;;4.14;63.36;99310.75;2058758;85;27704;-61
2021/11/26 00:37:08;;;;;;;63.60;38.78;;;;;;;4.11;63.44;99309.54;2070614;85;28785;-60
2021/11/26 00:40:12;;;;;;;66.60;39.08;;;;;;;4.08;63.42;99298.61;2087357;85;31840;-63
2021/11/26 00:43:14;;;;;;;68.12;40.63;;;;;;;4.04;63.49;99301.44;2110361;84;33843;-54
2021/11/26 00:46:16;;;;;;;69.77;40.67;;;;;;;4.01;63.43;99296.25;2117402;84;29750;-60
2021/11/26 00:49:17;;;;;;;70.87;40.35;;;;;;;3.98;63.66;99297.69;2113224;84;27770;-59
2021/11/26 00:52:20;;;;;;;64.55;38.08;;;;;;;3.94;63.76;99296.48;2091744;84;29929;-59
2021/11/26 00:55:21;;;;;;;67.80;40.40;;;;;;;3.95;63.82;99296.89;2082106;84;31051;-58
2021/11/26 00:58:23;;;;;;;61.18;36.65;;;;;;;3.94;63.71;99302.26;2138056;82;34178;-59
2021/11/26 01:01:25;;;;;;;66.35;37.53;;;;;;;3.93;63.72;99301.85;2069722;83;30531;-59
2021/11/26 01:04:29;;;;;;;63.73;37.93;;;;;;;3.93;63.83;99309.80;2056160;85;27627;-64
2021/11/26 01:07:30;;;;;;;67.72;37.85;;;;;;;3.92;63.57;99317.34;2095069;84;29894;-59
2021/11/26 01:10:33;;;;;;;66.42;39.23;;;;;;;3.92;63.67;99320.00;2077563;84;32262;-59
2021/11/26 01:13:35;;;;;;;66.82;37.93;;;;;;;3.91;63.54;99297.06;2082838;84;33045;-54
2021/11/26 01:16:37;;;;;;;69.82;39.18;;;;;;;3.91;63.58;99275.88;2070756;85;30113;-58
2021/11/26 01:19:39;;;;;;;63.33;39.03;;;;;;;3.91;63.59;99275.39;2083989;84;27623;-54
2021/11/26 01:22:41;;;;;;;66.72;37.78;;;;;;;3.92;63.71;99253.75;2070769;85;28709;-55
2021/11/26 01:25:44;;;;;;;65.65;38.80;;;;;;;3.95;63.78;99231.12;2086444;84;32262;-57
2021/11/26 01:28:47;;;;;;;72.78;40.50;;;;;;;3.97;63.82;99238.99;2068198;84;33343;-62
2021/11/26 01:31:48;;;;;;;82.30;45.23;;;;;;;3.99;63.88;99257.88;2100496;84;29494;-61
2021/11/26 01:34:50;;;;;;;78.85;42.53;;;;;;;4.01;63.88;99260.48;2030961;85;27700;-60
2021/11/26 01:37:52;;;;;;;77.95;42.62;;;;;;;4.01;63.78;99249.41;2083284;84;28802;-58
2021/11/26 01:40:56;;;;;;;76.80;43.92;;;;;;;4.03;63.81;99229.48;2088755;85;32249;-61
2021/11/26 01:43:58;;;;;;;74.47;43.55;;;;;;;4.02;63.90;99239.20;2078991;85;33172;-58
2021/11/26 01:47:00;;;;;;;77.92;41.98;;;;;;;4.04;63.87;99253.27;2100713;82;29372;-56
2021/11/26 01:50:07;;;;;;;74.00;42.15;;;;;;;4.06;63.89;99248.77;2113238;84;27687;-57
2021/11/26 01:53:08;;;;;;;71.30;42.05;;;;;;;4.07;63.89;99242.98;2079912;85;28682;-58
2021/11/26 01:56:14;;;;;;;67.55;37.40;;;;;;;4.06;63.75;99242.14;2078980;85;32262;-54
2021/11/26 01:59:15;;;;;;;;;;;;;;;4.03;63.60;99242.73;2090942;82;32996;-58
2021/11/26 02:02:19;;;;;;;66.15;39.08;;;;;;;4.02;63.62;99249.80;2084386;84;29293;-63
2021/11/26 02:05:21;;;;;;;71.53;40.67;;;;;;;4.02;63.74;99255.11;2111001;84;28201;-62
2021/11/26 02:08:23;;;;;;;68.28;39.83;;;;;;;4.02;63.78;99243.18;2136623;82;29919;-57
2021/11/26 02:11:26;;;;;;;71.70;42.13;;;;;;;4.01;63.73;99237.95;2151311;82;32326;-53
2021/11/26 02:14:29;;;;;;;68.35;39.85;;;;;;;4.04;63.78;99233.86;2151183;82;34161;-53
2021/11/26 02:17:31;;;;;;;63.85;37.67;;;;;;;4.05;63.64;99228.97;2132347;82;30570;-56
2021/11/26 02:20:33;;;;;;;63.52;38.17;;;;;;;4.06;63.68;99230.66;2073257;85;28231;-56
2021/11/26 02:23:34;;;;;;;65.80;39.27;;;;;;;4.09;63.76;99230.55;2072450;85;29258;-55
2021/11/26 02:26:39;;;;;;;61.55;36.25;;;;;;;4.09;63.67;99218.17;2098765;82;31420;-62
2021/11/26 02:29:40;;;;;;;63.15;38.35;;;;;;;4.08;63.58;99215.56;2136912;82;33610;-56
2021/11/26 02:32:54;;;;;;;64.37;41.02;;;;;;;4.08;63.58;99203.19;2147739;82;30486;-56
2021/11/26 02:35:58;;;;;;;60.85;38.33;;;;;;;4.09;63.71;99198.73;2123734;82;27707;-62
2021/11/26 02:39:00;;;;;;;60.50;37.65;;;;;;;4.10;63.71;99198.70;2107551;82;29895;-63
2021/11/26 02:42:02;;;;;;;55.20;36.03;;;;;;;4.12;63.70;99205.72;2147054;82;32219;-63
2021/11/26 02:45:08;;;;;;;58.87;36.85;;;;;;;4.12;63.63;99197.30;2144986;82;33792;-64
2021/11/26 02:48:11;;;;;;;57.93;35.05;;;;;;;4.13;63.74;99197.70;2144579;81;29343;-62
2021/11/26 02:51:13;;;;;;;66.53;40.60;;;;;;;4.14;63.81;99195.45;2123758;82;27649;-64
2021/11/26 02:54:15;;;;;;;60.35;36.93;;;;;;;4.16;63.75;99193.60;2133279;82;29062;-58
2021/11/26 02:57:16;;;;;;;62.03;36.77;;;;;;;4.14;63.63;99190.14;2074466;84;31257;-57
2021/11/26 03:00:24;;;;;;;57.48;36.33;;;;;;;4.14;63.61;99189.30;2133071;82;33629;-56
2021/11/26 03:03:26;;;;;;;63.08;36.77;;;;;;;4.16;63.60;99180.80;2114381;82;30306;-63
2021/11/26 03:06:29;;;;;;;60.70;37.13;;;;;;;4.14;63.61;99179.55;2143144;83;27615;-63
2021/11/26 03:09:32;;;;;;;59.05;36.63;;;;;;;4.15;63.62;99183.05;2147030;82;28835;-61
2021/11/26 03:12:37;;;;;;;59.08;37.17;;;;;;;4.15;63.77;99181.72;2124378;82;31042;-57
2021/11/26 03:15:41;;;;;;;61.28;37.48;;;;;;;4.16;63.76;99175.49;2111890;82;33014;-58
2021/11/26 03:18:42;;;;;;;58.23;37.03;;;;;;;4.15;63.66;99174.64;2090450;84;29338;-61
2021/11/26 03:21:45;;;;;;;57.40;35.65;;;;;;;4.11;63.53;99163.77;2163800;81;27675;-62
2021/11/26 03:24:47;;;;;;;60.50;35.68;;;;;;;4.09;63.57;99153.23;2099811;84;29887;-62
2021/11/26 03:27:49;;;;;;;59.48;37.25;;;;;;;4.06;63.33;99149.83;2112466;83;31914;-62
2021/11/26 03:30:51;;;;;;;54.00;33.60;;;;;;;4.01;63.54;99138.58;2122792;81;34438;-62
2021/11/26 03:33:58;;;;;;;63.38;38.05;;;;;;;4.00;63.61;99131.55;2082337;84;29330;-62
2021/11/26 03:37:02;;;;;;;65.60;40.05;;;;;;;3.98;63.60;99128.11;2048420;86;28321;-62
2021/11/26 03:40:07;;;;;;;68.90;39.80;;;;;;;3.97;63.52;99128.58;2036141;86;29982;-60
2021/11/26 03:43:11;;;;;;;61.02;35.78;;;;;;;3.94;63.71;99126.90;2064141;86;31013;-63
2021/11/26 03:46:13;;;;;;;72.82;38.15;;;;;;;3.94;63.83;99124.73;2059515;86;35173;-62
2021/11/26 03:49:15;;;;;;;78.47;40.10;;;;;;;3.95;63.90;99124.65;2046514;85;29920;-56
2021/11/26 03:52:17;;;;;;;79.87;39.83;;;;;;;3.95;63.85;99116.70;2050097;86;28228;-58
2021/11/26 03:55:21;;;;;;;74.53;37.85;;;;;;;3.95;64.04;99115.86;2057190;85;29723;-63
2021/11/26 03:58:23;;;;;;;75.60;38.53;;;;;;;3.95;64.00;99123.33;2063687;85;31582;-61
2021/11/26 04:01:25;;;;;;;70.92;38.73;;;;;;;3.94;63.95;99124.25;2038005;85;34208;-63
2021/11/26 04:04:31;;;;;;;71.70;37.55;;;;;;;3.93;63.99;99119.03;2047145;86;30289;-60
2021/11/26 04:07:36;;;;;;;71.47;38.90;;;;;;;3.91;64.10;99121.72;2053236;85;27618;-61
2021/11/26 04:10:39;;;;;;;70.20;38.42;;;;;;;3.91;64.17;99120.39;2055976;85;28688;-57
2021/11/26 04:13:41;;;;;;;68.67;37.60;;;;;;;3.90;64.16;99117.83;2042336;85;31194;-58
2021/11/26 04:16:43;;;;;;;63.83;36.05;;;;;;;3.89;64.17;99116.95;2065764;86;33920;-59
2021/11/26 04:19:45;;;;;;;70.83;37.33;;;;;;;3.88;64.30;99122.32;2054127;84;30207;-63
2021/11/26 04:22:48;;;;;;;69.67;38.58;;;;;;;3.88;64.26;99120.55;2052329;86;27741;-59
2021/11/26 04:25:56;;;;;;;75.45;39.40;;;;;;;3.89;64.33;99114.30;2012439;86;29600;-58
2021/11/26 04:29:03;;;;;;;74.07;40.95;;;;;;;3.90;64.44;99112.52;2053510;86;31438;-62
2021/11/26 04:32:06;;;;;;;86.57;41.42;;;;;;;3.91;64.47;99108.95;2014973;87;33801;-61
2021/11/26 04:35:10;;;;;;;86.00;42.33;;;;;;;3.91;64.48;99104.98;2003977;87;30467;-56
2021/11/26 04:38:11;;;;;;;86.57;43.20;;;;;;;3.89;64.40;99105.50;1991528;87;28337;-60
2021/11/26 04:41:13;;;;;;;85.20;42.98;;;;;;;3.88;64.58;99099.36;2092076;83;29965;-59
2021/11/26 04:44:15;;;;;;;79.12;41.77;;;;;;;3.88;64.57;99104.66;2120389;83;32268;-57
2021/11/26 04:47:17;;;;;;;77.37;40.95;;;;;;;3.88;64.63;99095.38;2114210;83;33375;-58
2021/11/26 04:50:19;;;;;;;73.15;39.75;;;;;;;3.91;64.76;99093.90;2118955;83;30540;-57
2021/11/26 04:53:21;;;;;;;75.78;40.83;;;;;;;3.94;64.80;99098.23;2083457;82;27564;-52
2021/11/26 04:56:23;;;;;;;74.55;41.10;;;;;;;3.95;64.85;99097.31;2081875;84;29884;-56
2021/11/26 04:59:25;;;;;;;67.67;39.42;;;;;;;3.98;64.90;99092.33;2093509;84;32158;-54
2021/11/26 05:02:27;;;;;;;75.87;42.08;;;;;;;4.00;64.83;99090.00;2097678;83;33811;-57
2021/11/26 05:05:28;;;;;;;84.70;41.90;;;;;;;4.00;64.72;99089.16;2074861;84;29714;-59
2021/11/26 05:08:30;;;;;;;82.53;42.03;;;;;;;3.99;64.76;99077.67;2068087;84;27699;-55
2021/11/26 05:11:33;;;;;;;72.82;38.73;;;;;;;4.01;64.91;99074.98;2094030;83;29069;-55
2021/11/26 05:14:35;;;;;;;73.00;39.13;;;;;;;4.02;64.92;99066.11;2100016;83;31092;-54
2021/11/26 05:17:37;;;;;;;66.45;38.10;;;;;;;4.03;64.95;99064.70;2086384;84;33159;-57
2021/11/26 05:20:38;;;;;;;71.00;38.88;;;;;;;4.04;64.98;99061.61;2079041;83;29671;-55
2021/11/26 05:23:41;;;;;;;69.05;38.13;;;;;;;4.03;64.91;99051.45;2102158;84;27685;-56
2021/11/26 05:26:43;;;;;;;65.55;37.50;;;;;;;4.04;65.07;99054.50;2081600;83;29988;-55
2021/11/26 05:29:45;;;;;;;68.47;38.10;;;;;;;4.06;65.12;99050.45;2077209;83;31089;-57
2021/11/26 05:32:52;;;;;;;67.17;38.88;;;;;;;4.06;65.20;99047.36;2068382;83;33713;-57
2021/11/26 05:35:51;;;;;;;70.72;40.03;;;;;;;4.06;65.27;99043.38;2061365;85;28798;-60
2021/11/26 05:38:52;;;;;;;69.45;39.20;;;;;;;4.08;65.24;99052.12;2064598;85;27792;-54
2021/11/26 05:41:54;;;;;;;68.60;38.23;;;;;;;4.09;65.36;99045.02;2070146;85;29087;-52
2021/11/26 05:44:56;;;;;;;66.90;38.95;;;;;;;4.12;65.38;99050.67;2086369;85;31197;-55
2021/11/26 05:47:58;;;;;;;72.05;39.92;;;;;;;4.13;65.38;99049.75;2060667;85;34140;-54
2021/11/26 05:51:00;;;;;;;69.67;39.78;;;;;;;4.13;65.32;99053.73;2074785;83;29964;-58
2021/11/26 05:54:01;;;;;;;58.45;36.98;;;;;;;4.15;65.43;99050.52;2080186;84;27691;-54
2021/11/26 05:57:05;;;;;;;60.73;37.33;;;;;;;4.16;65.46;99040.31;2054939;85;28819;-62
2021/11/26 06:00:11;;;;;;;59.80;36.23;;;;;;;4.18;65.43;99041.11;2112923;84;31023;-62
2021/11/26 06:03:13;;;;;;;67.03;36.80;;;;;;;4.18;65.43;99036.69;2091930;84;32958;-64
2021/11/26 06:06:15;;;;;;;61.48;36.42;;;;;;;4.20;65.48;99035.28;2112139;84;30561;-63
2021/11/26 06:09:17;;;;;;;63.02;36.48;;;;;;;4.21;65.56;99035.69;2080803;84;27702;-64
2021/11/26 06:12:18;;;;;;;60.65;37.10;;;;;;;4.22;65.51;99034.76;2089145;84;29352;-63
2021/11/26 06:15:22;;;;;;;63.10;37.10;;;;;;;4.22;65.43;99032.95;2073909;84;32246;-63
2021/11/26 06:18:25;;;;;;;66.65;38.80;;;;;;;4.23;65.52;99028.53;2097031;83;33341;-58
2021/11/26 06:21:27;;;;;;;63.15;37.93;;;;;;;4.23;65.41;99026.72;2074032;83;29616;-58
2021/11/26 06:24:29;;;;;;;60.78;35.78;;;;;;;4.24;65.39;99022.30;2075668;83;27722;-58
2021/11/26 06:27:31;;;;;;;67.00;38.73;;;;;;;4.26;65.62;99027.92;2066563;84;29115;-60
2021/11/26 06:30:33;;;;;;;64.15;38.45;;;;;;;4.29;65.69;99025.62;2085938;84;32378;-64
2021/11/26 06:33:34;;;;;;;64.67;38.33;;;;;;;4.30;65.64;99022.04;2079659;83;34217;-63
2021/11/26 06:36:37;;;;;;;65.32;38.63;;;;;;;4.32;65.76;99021.95;2078507;83;29425;-64
2021/11/26 06:39:39;;;;;;;59.95;35.45;;;;;;;4.34;65.54;99022.75;2102838;83;28049;-63
2021/11/26 06:42:41;;;;;;;65.97;36.23;;;;;;;4.37;65.65;99029.25;2066007;85;29866;-66
2021/11/26 06:45:43;;;;;;;62.48;36.80;;;;;;;4.38;65.78;99027.00;2060515;85;31115;-70
2021/11/26 06:48:45;;;;;;;60.95;37.40;;;;;;;4.40;65.69;99018.03;2061687;83;33118;-61
2021/11/26 06:51:47;;;;;;;61.45;35.50;;;;;;;4.44;65.68;99012.59;2081217;83;29418;-63
2021/11/26 06:54:49;;;;;;;60.00;36.68;;;;;;;4.45;65.71;99009.02;2079132;85;27976;-59
2021/11/26 06:57:51;;;;;;;65.10;38.48;;;;;;;4.48;65.71;99003.55;2082003;85;29230;-65
2021/11/26 07:00:53;;;;;;;66.55;40.00;;;;;;;4.48;65.49;99006.20;2086003;83;32291;-65
2021/11/26 07:03:55;;;;;;;74.25;41.30;;;;;;;4.48;65.50;99012.83;2090424;83;34095;-60
2021/11/26 07:06:57;;;;;;;72.80;40.98;;;;;;;4.50;65.64;99003.02;2126200;82;29697;-66
2021/11/26 07:09:58;;;;;;;75.97;39.30;;;;;;;4.53;65.60;99014.81;2113316;83;27734;-64
2021/11/26 07:13:00;;;;;;;72.37;39.03;;;;;;;4.52;65.30;99013.97;2090503;84;30047;-66
2021/11/26 07:16:03;;;;;;;72.47;39.60;;;;;;;4.52;65.42;99008.67;2103032;83;31942;-67
2021/11/26 07:19:04;;;;;;;71.92;41.95;;;;;;;4.54;65.39;99013.89;2079090;85;32760;-65
2021/11/26 07:22:07;;;;;;;74.75;43.28;;;;;;;4.53;65.47;99013.05;2079983;85;30507;-62
2021/11/26 07:25:10;;;;;;;65.22;38.35;;;;;;;4.54;65.39;99020.52;2080582;83;27685;-66
2021/11/26 07:28:12;;;;;;;71.40;41.20;;;;;;;4.55;65.54;99014.28;2090650;83;29006;-61
2021/11/26 07:31:14;;;;;;;66.35;39.67;;;;;;;4.56;65.39;99020.83;2118384;83;31349;-63
2021/11/26 07:34:16;;;;;;;72.10;42.53;;;;;;;4.56;65.44;99016.85;2126159;83;33043;-65
2021/11/26 07:37:18;;;;;;;63.68;38.83;;;;;;;4.56;65.45;99018.18;2127096;83;29346;-66
2021/11/26 07:40:20;;;;;;;68.33;39.48;;;;;;;4.59;65.57;99016.33;2107587;83;27627;-66
2021/11/26 07:43:21;;;;;;;69.40;39.95;;;;;;;4.60;65.55;99017.59;2108556;83;29038;-65
2021/11/26 07:46:23;;;;;;;64.62;39.05;;;;;;;4.62;65.37;99017.06;2092782;83;31981;-65
2021/11/26 07:49:28;;;;;;;72.08;43.90;;;;;;;4.62;65.56;99013.09;2090999;85;32963;-66
2021/11/26 07:52:29;;;;;;;79.60;42.23;;;;;;;4.63;65.45;99015.27;2090697;85;29852;-66
2021/11/26 07:55:31;;;;;;;76.22;41.88;;;;;;;4.65;65.58;99015.57;2084221;83;27535;-66
2021/11/26 07:58:33;;;;;;;68.37;41.02;;;;;;;4.66;65.58;99019.95;2079707;85;29071;-66
2021/11/26 08:01:35;;;;;;;73.37;42.85;;;;;;;4.67;65.47;99011.55;2080081;85;31859;-62
2021/11/26 08:04:38;;;;;;;70.22;42.03;;;;;;;4.68;65.44;99023.88;2094600;83;33026;-59
2021/11/26 08:07:40;;;;;;;69.87;41.80;;;;;;;4.64;65.35;99009.87;2093706;83;29368;-64
2021/11/26 08:10:42;;;;;;;76.55;40.75;;;;;;;4.64;65.41;99007.22;2090816;85;27658;-66
2021/11/26 08:13:44;;;;;;;77.35;46.60;;;;;;;4.64;65.46;99006.38;2090093;85;30109;-66
2021/11/26 08:16:50;;;;;;;73.42;43.55;;;;;;;4.66;65.69;99015.13;2080984;83;31020;-65
2021/11/26 08:19:52;;;;;;;81.87;47.88;;;;;;;4.69;65.66;99013.66;2079731;85;34220;-62
2021/11/26 08:22:55;;;;;;;83.33;53.28;;;;;;;4.69;65.67;99005.22;2079997;85;30457;-66
2021/11/26 08:25:59;;;;;;;102.40;59.27;;;;;;;4.71;65.68;99004.69;2086362;83;27725;-60
2021/11/26 08:29:03;;;;;;;113.17;65.40;;;;;;;4.75;65.79;98999.25;2090738;84;28652;-56
2021/11/26 08:32:06;;;;;;;88.07;49.10;;;;;;;4.78;65.66;98995.13;2090751;84;31034;-58
2021/11/26 08:35:08;;;;;;;82.70;46.48;;;;;;;4.81;65.79;98994.51;2082409;83;34216;-55
2021/11/26 08:38:10;;;;;;;71.25;40.23;;;;;;;4.84;65.80;98997.02;2056714;85;30867;-56
2021/11/26 08:41:12;;;;;;;75.12;42.33;;;;;;;4.88;65.71;98987.12;2055292;85;27689;-60
2021/11/26 08:44:14;;;;;;;72.70;41.13;;;;;;;4.91;65.75;98975.48;2056072;86;30067;-55
2021/11/26 08:47:16;;;;;;;71.60;40.92;;;;;;;4.92;65.69;98970.13;2090451;84;32211;-60
2021/11/26 08:50:19;;;;;;;79.05;43.40;;;;;;;4.93;65.74;98959.91;2103383;83;34333;-61
2021/11/26 08:53:22;;;;;;;69.20;41.02;;;;;;;4.97;65.75;98959.28;2126178;83;30371;-55
2021/11/26 08:56:25;;;;;;;74.72;40.95;;;;;;;5.01;65.74;98944.45;2126321;83;27739;-54
2021/11/26 08:59:35;;;;;;;71.35;41.10;;;;;;;5.05;65.52;98942.50;2127386;83;27740;-62
2021/11/26 09:02:37;;;;;;;76.12;40.20;;;;;;;5.11;65.68;98930.75;2123669;83;31911;-65
2021/11/26 09:05:39;;;;;;;74.58;42.85;;;;;;;5.19;65.74;98929.88;2090320;83;34268;-63
2021/11/26 09:08:41;;;;;;;47.35;28.95;;;;;;;5.25;65.58;98918.97;2090653;85;30508;-59
2021/11/26 09:11:43;;;;;;;40.10;26.30;;;;;;;5.32;65.48;98914.20;2090729;85;27690;-64
2021/11/26 09:14:45;;;;;;;47.03;27.50;;;;;;;5.42;65.37;98910.13;2069495;83;30080;-60
2021/11/26 09:17:46;;;;;;;55.65;30.62;;;;;;;5.51;65.28;98897.34;2055191;85;32245;-60
2021/11/26 09:20:53;;;;;;;49.35;30.43;;;;;;;5.57;65.12;98889.91;2068938;85;32979;-57
2021/11/26 09:23:55;;;;;;;55.28;31.27;;;;;;;5.65;65.10;98876.67;2093483;83;29334;-64
2021/11/26 09:26:57;;;;;;;55.85;32.75;;;;;;;5.72;65.06;98874.94;2090535;84;27593;-64
2021/11/26 09:29:59;;;;;;;65.45;34.13;;;;;;;5.80;65.20;98877.68;2096099;83;29130;-64
2021/11/26 09:33:00;;;;;;;51.63;32.03;;;;;;;5.86;64.75;98878.69;2089183;84;32223;-62
2021/11/26 09:36:07;;;;;;;49.80;28.80;;;;;;;5.87;64.84;98874.61;2091455;85;33400;-64
2021/11/26 09:39:08;;;;;;;67.90;37.85;;;;;;;5.93;64.82;98878.73;2071696;85;29358;-65
2021/11/26 09:42:10;;;;;;;55.35;32.58;;;;;;;5.96;64.67;98873.26;2070790;83;27654;-64
2021/11/26 09:45:18;;;;;;;60.80;34.55;;;;;;;6.00;64.62;98868.66;2090440;85;28736;-65
2021/11/26 09:48:19;;;;;;;48.52;29.82;;;;;;;6.04;64.63;98854.27;2091040;83;31923;-66
2021/11/26 09:51:20;;;;;;;43.50;28.42;;;;;;;6.07;64.49;98856.28;2090675;85;33078;-65
2021/11/26 09:54:22;;;;;;;36.17;23.12;;;;;;;6.09;64.40;98853.56;2090080;85;30483;-59
2021/11/26 09:57:24;;;;;;;40.40;22.62;;;;;;;6.11;64.43;98850.34;2091051;83;28203;-66
2021/11/26 10:00:26;;;;;;;35.23;21.70;;;;;;;6.11;64.39;98852.13;2121109;83;30049;-66
2021/11/26 10:03:45;;;;;;;34.55;21.90;;;;;;;6.13;64.26;98855.08;2126820;83;31201;-64
2021/11/26 10:06:48;;;;;;;38.78;24.40;;;;;;;6.12;64.14;98844.55;2089244;85;34117;-65
2021/11/26 10:09:50;;;;;;;39.50;23.65;;;;;;;6.13;64.41;98844.45;2089148;85;30332;-62
2021/11/26 10:13:01;;;;;;;41.83;25.95;;;;;;;6.17;64.30;98838.52;2089343;85;27767;-59
2021/11/26 10:16:11;;;;;;;39.42;24.77;;;;;;;6.18;64.30;98829.11;2088878;85;29496;-57
2021/11/26 10:19:13;;;;;;;42.98;27.25;;;;;;;6.20;64.26;98829.05;2089241;85;31622;-62
2021/11/26 10:22:22;;;;;;;43.87;26.35;;;;;;;6.22;64.33;98819.15;2089256;85;33106;-59
2021/11/26 10:25:25;;;;;;;41.70;26.57;;;;;;;6.27;64.32;98814.92;2083924;85;29868;-57
2021/11/26 10:28:32;;;;;;;50.08;30.05;;;;;;;6.28;64.26;98802.86;2066341;85;27738;-52
2021/11/26 10:31:36;;;;;;;45.63;27.37;;;;;;;6.28;63.87;98792.71;2056665;85;29547;-62
2021/11/26 10:34:40;;;;;;;44.98;27.87;;;;;;;6.25;63.89;98791.06;2064773;85;32048;-56
2021/11/26 10:37:45;;;;;;;47.60;28.90;;;;;;;6.27;63.91;98789.66;2054276;86;33778;-59
2021/11/26 10:40:52;;;;;;;54.90;33.10;;;;;;;6.29;64.04;98783.30;2032038;86;29648;-69
2021/11/26 10:43:59;;;;;;;54.38;30.60;;;;;;;6.32;64.09;98783.13;2074905;83;27785;-68
2021/11/26 10:47:36;;;;;;;49.10;28.00;;;;;;;6.35;64.15;98778.98;2079693;85;28471;-69
2021/11/26 11:00:23;;;;;;;45.23;27.40;;;;;;;6.32;63.63;98744.57;2088787;85;27682;-62
2021/11/26 11:03:26;;;;;;;49.35;31.57;;;;;;;6.34;63.65;98736.49;2056731;85;28665;-66
2021/11/26 11:06:28;;;;;;;50.80;30.48;;;;;;;6.35;63.74;98728.45;2057859;85;31238;-56
2021/11/26 11:09:55;;;;;;;46.80;29.20;;;;;;;6.36;63.66;98727.50;2080482;83;34082;-71
2021/11/26 11:13:01;;;;;;;45.98;30.23;;;;;;;6.39;63.74;98727.30;2051004;83;29356;-71
2021/11/26 11:16:10;;;;;;;62.75;40.58;;;;;;;6.42;63.66;98718.30;2083545;82;28251;-68
2021/11/26 11:19:12;;;;;;;77.32;44.08;;;;;;;6.45;63.75;98719.45;2074863;82;28834;-60
2021/11/26 11:22:15;;;;;;;51.70;30.10;;;;;;;6.49;63.67;98713.48;2085216;82;31418;-59
2021/11/26 11:25:25;;;;;;;61.98;34.30;;;;;;;6.45;63.36;98718.13;2079216;83;32978;-63
2021/11/26 11:28:22;;;;;;;160.75;81.08;;;;;;;6.44;63.63;98710.22;2082063;83;30924;-65
2021/11/26 11:31:24;;;;;;;47.90;30.02;;;;;;;6.43;63.69;98709.84;2084070;83;27683;-62
2021/11/26 11:34:30;;;;;;;46.40;26.25;;;;;;;6.44;63.76;98703.11;2080209;83;29928;-56
2021/11/26 11:37:32;;;;;;;45.20;25.80;;;;;;;6.47;63.76;98698.92;2085243;83;31074;-53
2021/11/26 11:40:38;;;;;;;45.28;28.87;;;;;;;6.48;63.61;98689.15;2082138;83;33564;-69
2021/11/26 11:43:46;;;;;;;44.42;25.90;;;;;;;6.44;63.61;98670.32;2086813;83;30233;-61
2021/11/26 11:46:48;;;;;;;41.05;25.75;;;;;;;6.46;63.36;98683.06;2079458;83;27811;-53
2021/11/26 11:50:13;;;;;;;43.17;26.75;;;;;;;6.40;63.36;98677.63;2053404;85;28373;-69
2021/11/26 11:53:31;;;;;;;60.00;37.60;;;;;;;6.36;63.44;98676.09;2069309;83;31116;-70
2021/11/26 11:56:46;;;;;;;56.18;34.05;;;;;;;6.33;63.67;98664.30;2054093;84;32901;-63
2021/11/26 11:59:50;;;;;;;45.33;28.77;;;;;;;6.33;63.82;98658.98;2061901;84;30146;-65
2021/11/26 12:02:54;;;;;;;61.40;35.52;;;;;;;6.30;63.76;98648.52;2049980;85;27796;-72
2021/11/26 12:06:02;;;;;;;47.45;27.45;;;;;;;6.33;63.92;98648.34;2014931;85;29073;-76
2021/11/26 12:09:05;;;;;;;48.17;25.88;;;;;;;6.32;63.84;98642.64;2088665;84;32320;-74
2021/11/26 12:12:16;;;;;;;42.50;25.80;;;;;;;6.31;63.83;98632.48;2090198;84;34309;-65
2021/11/26 12:15:32;;;;;;;47.20;26.45;;;;;;;6.29;63.71;98624.23;2090184;84;29319;-74
2021/11/26 12:18:46;;;;;;;43.85;26.85;;;;;;;6.25;63.69;98622.20;2090871;85;36209;-69
2021/11/26 12:21:51;;;;;;;48.65;28.07;;;;;;;6.24;63.70;98616.50;2089526;85;30263;-57
2021/11/26 12:24:56;;;;;;;36.23;25.90;;;;;;;6.23;63.70;98610.80;2089904;85;31045;-61
2021/11/26 12:28:05;;;;;;;43.50;25.95;;;;;;;6.25;63.59;98608.06;2055941;86;34428;-63
2021/11/26 12:31:09;;;;;;;47.70;27.75;;;;;;;6.25;63.60;98602.26;2077851;83;29346;-65
2021/11/26 12:34:19;;;;;;;55.67;30.00;;;;;;;6.27;63.62;98598.20;2091005;84;27676;-61
2021/11/26 12:37:28;;;;;;;50.38;30.35;;;;;;;6.27;63.60;98592.88;2090913;84;28695;-57
2021/11/26 12:40:31;;;;;;;50.70;29.82;;;;;;;6.27;63.45;98590.22;2082746;83;31023;-51
2021/11/26 12:43:44;;;;;;;58.90;35.58;;;;;;;6.21;63.52;98585.64;2084222;85;33437;-62
2021/11/26 12:46:54;;;;;;;59.50;36.35;;;;;;;6.20;63.65;98590.57;2089638;85;29377;-57
2021/11/26 12:53:21;;;;;;;54.35;32.60;;;;;;;6.17;63.61;98577.45;2066088;85;29879;-75
2021/11/26 12:56:24;;;;;;;70.72;40.67;;;;;;;6.17;63.73;98576.61;2091122;85;31286;-75
2021/11/26 12:59:36;;;;;;;69.70;37.23;;;;;;;6.13;63.61;98564.44;2072851;85;33840;-72
2021/11/26 13:02:39;;;;;;;61.80;36.65;;;;;;;6.12;63.84;98566.72;2056634;86;29397;-57
2021/11/26 13:05:46;;;;;;;71.33;37.40;;;;;;;6.10;63.56;98560.63;2062344;85;27747;-73
2021/11/26 13:09:06;;;;;;;66.50;34.23;;;;;;;6.05;63.59;98566.22;2089432;84;28744;-76
2021/11/26 13:12:09;;;;;;;65.25;38.20;;;;;;;6.01;63.69;98555.38;2091069;85;31089;-57
2021/11/26 13:15:35;;;;;;;71.45;37.30;;;;;;;5.97;63.70;98555.14;2089539;85;34219;-69
2021/11/26 13:18:37;;;;;;;60.08;35.63;;;;;;;5.98;63.71;98551.54;2088128;85;29987;-60
2021/11/26 13:21:39;;;;;;;61.48;35.52;;;;;;;5.95;63.71;98537.13;2090485;85;28157;-71
2021/11/26 13:24:47;;;;;;;64.25;37.67;;;;;;;5.96;63.84;98540.17;2090563;85;29921;-70
2021/11/26 13:27:57;;;;;;;64.92;37.40;;;;;;;5.96;63.77;98532.20;2084038;83;31582;-75
2021/11/26 13:31:14;;;;;;;65.67;37.55;;;;;;;5.93;63.75;98529.22;2080011;85;32967;-59
2021/11/26 13:34:16;;;;;;;59.27;35.85;;;;;;;5.93;63.75;98523.91;2071872;85;30168;-73
2021/11/26 13:37:20;;;;;;;65.10;36.38;;;;;;;5.90;63.81;98522.76;2071394;85;27706;-68
2021/11/26 13:40:22;;;;;;;62.38;37.15;;;;;;;5.89;63.80;98517.05;2071573;85;28675;-73
2021/11/26 13:43:36;;;;;;;66.05;35.78;;;;;;;5.86;63.93;98511.46;2113188;83;31889;-73
2021/11/26 13:46:44;;;;;;;58.20;34.67;;;;;;;5.86;63.88;98507.97;2142604;82;33848;-66
2021/11/26 13:49:46;;;;;;;58.08;34.05;;;;;;;5.83;63.94;98502.83;2132718;83;30762;-73
2021/11/26 13:52:50;;;;;;;58.95;33.33;;;;;;;5.80;63.86;98491.05;2105965;84;27679;-60
2021/11/26 13:55:53;;;;;;;64.58;36.15;;;;;;;5.75;63.83;98493.49;2126684;83;29879;-63
2021/11/26 13:58:59;;;;;;;56.88;32.93;;;;;;;5.73;64.03;98489.23;2141558;83;30999;-74
2021/11/26 14:02:08;;;;;;;55.17;33.23;;;;;;;5.74;64.08;98494.92;2142484;83;33889;-72
2021/11/26 14:05:10;;;;;;;69.17;35.52;;;;;;;5.67;63.94;98486.92;2133132;83;29375;-75
2021/11/26 14:08:14;;;;;;;79.45;43.75;;;;;;;5.58;64.00;98486.98;2077133;84;27727;-76
2021/11/26 14:11:29;;;;;;;79.47;40.90;;;;;;;5.56;64.22;98484.89;2106709;84;28877;-74
2021/11/26 14:14:31;;;;;;;72.00;38.27;;;;;;;5.54;64.32;98486.31;2106501;83;31910;-71
2021/11/26 14:17:35;;;;;;;64.45;35.73;;;;;;;5.54;64.53;98481.49;2084804;83;33760;-75
2021/11/26 14:20:39;;;;;;;67.65;38.05;;;;;;;5.52;64.46;98476.25;2071491;85;30488;-77
2021/11/26 14:23:54;;;;;;;63.60;37.38;;;;;;;5.47;64.47;98470.34;2071698;85;28228;-75
2021/11/26 14:26:56;;;;;;;85.55;48.80;;;;;;;5.41;64.46;98480.86;2071705;85;28670;-76